Kezdőlap
METAR-TAF:

METAR-TAF

Repülőterek :

Marshalltown Municipal Airport

Marshalltown, Iowa, Amerikai Egyesült Államok

földrajzi szélesség: 42-06-38N, földrajzi hosszúság: 092-54-58W, magasság: 296 m

Jelenlegi meteorológiai megfigyelések

A jelentés 21 perccel ezelõtt készült, 07:31 UTC
Északnyugati szél 20 kt széllökések: 29 kt
Hőmérséklet -3°C
Páratartalom 93%
Légköri nyomás 1017 hPa
Látótávolság: 16.1 km
Szakadozott felhőzet 1500 lábon
Borult 2000 lábon

METAR: KMIW 180731Z AUTO 32020G29KT 10SM BKN015 OVC020 M03/M04 A3002 RMK AO2 PK WND 31030/0709 T10281039 $

Idő: 01:52 (07:52 UTC)


TAF: hiányzik

Meteorológiai megfigyelések és előrejelzések több, mint 4000 repülőtéren (METAR és TAF jelentéseket).

A térképen piros és sárga pontok jelzik az elérhető meteorológiai állomásokat.

Mozgassa az egeret a pont fölött, hogy megjelenjen az állomás neve.

Azután kattintson az időjárási megfigyelések és előrejelzések megtekintéséhez.

A térkép megváltoztatása: kattintson a fekete keresztel jelölt zöld gombra ráközelítéshez, a vonallal jelölt zöld gombra távolításhoz, vagy a zöld nyilakra a szomszédos térképek eléréséhez.


METAR-TAF: